createdAt,value
2018-05-07T00:00:33.653Z,47.40
2018-05-07T00:06:02.607Z,47.90
2018-05-07T00:11:30.706Z,47.80
2018-05-07T00:16:59.634Z,48.80
2018-05-07T00:22:28.561Z,48.30
2018-05-07T00:27:56.705Z,48.30
2018-05-07T00:33:25.608Z,48.70
2018-05-07T00:38:53.777Z,48.70
2018-05-07T00:44:21.918Z,48.80
2018-05-07T00:49:50.057Z,49.20
2018-05-07T00:55:23.158Z,49.30
2018-05-07T01:00:51.301Z,49.60
2018-05-07T01:06:19.445Z,49.80
2018-05-07T01:11:47.581Z,50.10
2018-05-07T01:17:15.708Z,50.30
2018-05-07T01:22:44.611Z,50.70
2018-05-07T01:28:12.752Z,50.70
2018-05-07T01:33:40.910Z,50.80
2018-05-07T01:39:09.040Z,50.90
2018-05-07T01:44:37.181Z,51.20
2018-05-07T01:50:05.361Z,51.40
2018-05-07T01:55:34.337Z,51.60
2018-05-07T02:01:02.472Z,51.90
2018-05-07T02:06:30.641Z,52.10
2018-05-07T02:11:58.763Z,52.30
2018-05-07T02:17:26.926Z,52.50
2018-05-07T02:22:55.079Z,52.60
2018-05-07T02:28:23.992Z,53.10
2018-05-07T02:33:52.134Z,53.00
2018-05-07T02:39:21.050Z,53.30
2018-05-07T02:44:49.205Z,53.30
2018-05-07T02:50:18.114Z,53.70
2018-05-07T02:55:46.241Z,53.70
2018-05-07T03:01:14.377Z,53.80
2018-05-07T03:06:43.515Z,54.30
2018-05-07T03:12:12.465Z,54.60
2018-05-07T03:17:40.578Z,54.60
2018-05-07T03:23:09.479Z,54.90
2018-05-07T03:28:37.657Z,54.90
2018-05-07T03:34:05.787Z,55.20
2018-05-07T03:39:33.959Z,55.30
2018-05-07T03:45:03.047Z,55.80
2018-05-07T03:50:33.041Z,55.90
2018-05-07T03:56:02.021Z,56.00
2018-05-07T04:01:30.935Z,56.00
2018-05-07T04:06:59.925Z,56.20
2018-05-07T04:12:28.101Z,56.10
2018-05-07T04:18:14.101Z,56.20
2018-05-07T04:24:00.359Z,56.30
2018-05-07T04:29:28.508Z,56.30
2018-05-07T04:34:56.636Z,56.30
2018-05-07T04:40:29.720Z,56.20
2018-05-07T04:45:57.882Z,56.20
2018-05-07T04:51:26.779Z,56.30
2018-05-07T04:56:54.944Z,56.20
2018-05-07T05:02:23.837Z,56.30
2018-05-07T05:07:51.979Z,56.10
2018-05-07T05:13:20.125Z,56.30
2018-05-07T05:18:49.046Z,56.10
2018-05-07T05:24:17.202Z,56.10
2018-05-07T05:29:45.358Z,56.00
2018-05-07T05:35:13.512Z,55.90
2018-05-07T05:40:43.369Z,55.40
2018-05-07T05:46:11.502Z,55.40
2018-05-07T05:51:40.412Z,54.70
2018-05-07T05:57:08.586Z,54.60
2018-05-07T06:02:36.749Z,54.40
2018-05-07T06:08:04.927Z,54.00
2018-05-07T06:13:33.118Z,53.90
2018-05-07T06:19:02.048Z,53.20
2018-05-07T06:24:30.955Z,53.40
2018-05-07T06:29:59.108Z,53.20
2018-05-07T06:35:27.300Z,53.30
2018-05-07T06:40:55.441Z,52.50
2018-05-07T06:46:24.379Z,52.50
2018-05-07T06:51:53.283Z,51.90
2018-05-07T06:57:21.438Z,51.90
2018-05-07T07:02:50.493Z,50.90
2018-05-07T07:08:18.614Z,50.80
2018-05-07T07:13:47.430Z,49.90
2018-05-07T07:19:16.335Z,49.80
2018-05-07T07:24:44.466Z,49.70
2018-05-07T07:30:12.606Z,49.90
2018-05-07T07:35:40.740Z,48.80
2018-05-07T07:41:09.642Z,48.30
2018-05-07T07:46:37.805Z,48.30
2018-05-07T07:52:05.937Z,48.60
2018-05-07T07:57:34.097Z,48.10
2018-05-07T08:03:03.043Z,47.00
2018-05-07T08:08:31.203Z,47.00
2018-05-07T08:13:59.364Z,46.40
2018-05-07T08:19:27.487Z,46.60
2018-05-07T08:24:55.667Z,45.90
2018-05-07T08:30:23.910Z,45.40
2018-05-07T08:35:52.039Z,45.00
2018-05-07T08:41:20.189Z,44.10
2018-05-07T08:46:48.341Z,43.70
2018-05-07T08:52:16.507Z,43.90
2018-05-07T08:57:44.636Z,43.60
2018-05-07T09:03:12.786Z,42.80
2018-05-07T09:08:41.684Z,42.60
2018-05-07T09:14:09.835Z,42.50
2018-05-07T09:19:38.751Z,42.90
2018-05-07T09:25:06.900Z,42.80
2018-05-07T09:30:35.838Z,42.20
2018-05-07T09:36:04.768Z,41.40
2018-05-07T09:41:33.680Z,41.90
2018-05-07T09:47:01.868Z,41.80
2018-05-07T09:52:30.034Z,40.90
2018-05-07T09:58:04.482Z,40.50
2018-05-07T10:03:32.667Z,40.20
2018-05-07T10:09:00.840Z,39.30
2018-05-07T10:14:28.983Z,38.90
2018-05-07T10:19:57.886Z,39.10
2018-05-07T10:25:26.038Z,38.90
2018-05-07T10:30:54.947Z,39.90
2018-05-07T10:36:23.099Z,39.30
2018-05-07T10:41:51.252Z,38.10
2018-05-07T10:47:19.393Z,37.90
2018-05-07T10:52:47.537Z,38.00
2018-05-07T10:58:15.683Z,37.20
2018-05-07T11:03:43.825Z,37.70
2018-05-07T11:09:12.739Z,37.00
2018-05-07T11:14:40.904Z,36.90
2018-05-07T11:20:09.065Z,37.00
2018-05-07T11:25:37.231Z,36.40
2018-05-07T11:31:05.504Z,35.80
2018-05-07T11:36:33.613Z,36.00
2018-05-07T11:42:01.767Z,35.10
2018-05-07T11:47:30.025Z,34.90
2018-05-07T11:52:58.053Z,34.60
2018-05-07T11:58:26.204Z,32.80
2018-05-07T12:03:54.352Z,33.50
2018-05-07T12:09:22.485Z,34.60
2018-05-07T12:14:50.629Z,34.10
2018-05-07T12:20:18.768Z,34.50
2018-05-07T12:25:47.677Z,34.50
2018-05-07T12:31:15.862Z,34.50
2018-05-07T12:36:44.747Z,33.20
2018-05-07T12:42:12.920Z,33.20
2018-05-07T12:47:41.070Z,31.80
2018-05-07T12:53:09.321Z,32.40
2018-05-07T12:58:37.484Z,32.80
2018-05-07T13:04:05.639Z,32.90
2018-05-07T13:09:33.789Z,32.20
2018-05-07T13:15:01.975Z,32.10
2018-05-07T13:20:30.142Z,32.10
2018-05-07T13:25:58.295Z,32.40
2018-05-07T13:31:26.473Z,32.20
2018-05-07T13:36:55.477Z,31.00
2018-05-07T13:42:24.318Z,31.40
2018-05-07T13:47:52.470Z,31.00
2018-05-07T13:53:21.379Z,31.70
2018-05-07T13:58:49.526Z,31.70
2018-05-07T14:04:17.687Z,31.70
2018-05-07T14:09:45.844Z,31.10
2018-05-07T14:15:14.209Z,31.30
2018-05-07T14:20:42.345Z,30.90
2018-05-07T14:26:10.481Z,31.20
2018-05-07T14:31:38.675Z,31.10
2018-05-07T14:37:06.856Z,31.60
2018-05-07T14:42:35.051Z,31.40
2018-05-07T14:48:03.900Z,24.90
2018-05-07T14:53:32.080Z,24.80
2018-05-07T14:59:00.254Z,24.30
2018-05-07T15:04:28.378Z,24.90
2018-05-07T15:09:57.276Z,27.90
2018-05-07T15:15:25.408Z,27.80
2018-05-07T15:20:53.548Z,29.00
2018-05-07T15:26:21.683Z,29.60
2018-05-07T15:31:50.580Z,31.20
2018-05-07T15:37:18.707Z,31.00
2018-05-07T15:42:46.844Z,31.20
2018-05-07T15:48:14.976Z,32.00
2018-05-07T15:53:43.880Z,31.80
2018-05-07T15:59:12.008Z,31.80
2018-05-07T16:04:40.159Z,32.30
2018-05-07T16:10:09.077Z,32.30
2018-05-07T16:15:37.588Z,32.30
2018-05-07T16:21:05.774Z,33.20
2018-05-07T16:26:34.148Z,33.30
2018-05-07T16:32:02.327Z,33.20
2018-05-07T16:37:30.561Z,33.30
2018-05-07T16:43:02.163Z,33.70
2018-05-07T16:48:31.215Z,33.80
2018-05-07T16:53:59.302Z,33.70
2018-05-07T16:59:27.457Z,33.40
2018-05-07T17:04:55.629Z,33.10
2018-05-07T17:10:23.783Z,33.30
2018-05-07T17:15:51.923Z,33.60
2018-05-07T17:21:20.212Z,34.00
2018-05-07T17:26:48.365Z,34.80
2018-05-07T17:32:16.663Z,35.40
2018-05-07T17:37:44.817Z,35.90
2018-05-07T17:43:13.769Z,36.60
2018-05-07T17:48:54.595Z,36.60
2018-05-07T17:54:22.729Z,36.80
2018-05-07T17:59:50.966Z,37.10
2018-05-07T18:05:22.634Z,37.60
2018-05-07T18:10:51.610Z,38.10
2018-05-07T18:16:20.468Z,38.20
2018-05-07T18:21:48.625Z,38.10
2018-05-07T18:27:17.547Z,38.50
2018-05-07T18:32:46.605Z,38.80
2018-05-07T18:38:14.783Z,38.80
2018-05-07T18:43:43.080Z,38.90
2018-05-07T18:49:12.048Z,39.70
2018-05-07T18:54:40.197Z,39.70
2018-05-07T19:00:10.045Z,40.10
2018-05-07T19:05:38.193Z,40.10
2018-05-07T19:11:06.360Z,40.50
2018-05-07T19:16:34.516Z,40.80
2018-05-07T19:22:03.518Z,41.40
2018-05-07T19:27:31.729Z,41.40
2018-05-07T19:32:59.970Z,41.70
2018-05-07T19:38:28.108Z,42.20
2018-05-07T19:43:57.011Z,42.70
2018-05-07T19:49:25.289Z,42.70
2018-05-07T19:54:53.475Z,43.00
2018-05-07T20:00:21.614Z,43.40
2018-05-07T20:05:50.524Z,43.90
2018-05-07T20:11:18.672Z,43.90
2018-05-07T20:16:47.617Z,44.50
2018-05-07T20:22:16.538Z,44.70
2018-05-07T20:27:44.686Z,44.60
2018-05-07T20:33:13.894Z,45.00
2018-05-07T20:38:41.985Z,45.10
2018-05-07T20:44:10.167Z,45.30
2018-05-07T20:49:38.314Z,45.80
2018-05-07T20:55:06.482Z,46.00
2018-05-07T21:00:34.636Z,46.50
2018-05-07T21:06:02.800Z,46.80
2018-05-07T21:11:30.986Z,47.20
2018-05-07T21:16:59.229Z,47.60
2018-05-07T21:22:28.158Z,48.30
2018-05-07T21:27:56.321Z,48.30
2018-05-07T21:33:25.226Z,51.20
2018-05-07T21:38:53.382Z,51.10
2018-05-07T21:44:22.276Z,50.20
2018-05-07T21:49:50.463Z,50.20
2018-05-07T21:55:18.631Z,50.00
2018-05-07T22:00:46.790Z,50.20
2018-05-07T22:06:14.942Z,50.20
2018-05-07T22:11:43.094Z,50.40
2018-05-07T22:17:11.231Z,50.60
2018-05-07T22:22:39.381Z,51.20
2018-05-07T22:28:07.537Z,50.80
2018-05-07T22:33:35.718Z,50.70
2018-05-07T22:39:03.929Z,50.90
2018-05-07T22:44:32.088Z,51.10
2018-05-07T22:50:01.111Z,51.20
2018-05-07T22:55:29.301Z,51.40
2018-05-07T23:00:58.204Z,51.90
2018-05-07T23:06:26.357Z,51.90
2018-05-07T23:11:55.262Z,52.50
2018-05-07T23:17:23.407Z,52.60
2018-05-07T23:22:51.585Z,52.50
2018-05-07T23:28:19.766Z,52.90
2018-05-07T23:33:48.668Z,53.30
2018-05-07T23:39:16.813Z,53.30
2018-05-07T23:44:45.718Z,53.70
2018-05-07T23:50:13.862Z,53.70
2018-05-07T23:55:42.763Z,54.00
